Time;durP1;ratioP1;P1;durP2;ratioP2;P2;SDS_P1;SDS_P2;PMS_P1;PMS_P2;Temp;Humidity;BMP_temperature;BMP_pressure;BME280_temperature;BME280_humidity;BME280_pressure;Samples;Min_cycle;Max_cycle;Signal;HPM_P1;HPM_P2
2022/09/17 00:00:12;;;;;;;;;;;;;;;;;;4963233;28;1198;-72
2022/09/17 00:02:38;;;;;;;;;;;;;;;;;;4970979;28;1298;-71
2022/09/17 00:05:05;;;;;;;;;;;;;;;;;;4954063;28;1255;-70
2022/09/17 00:07:31;;;;;;;;;;;;;;;;;;4970350;28;1910;-70
2022/09/17 00:09:59;;;;;;;;;;;;;;;;;;4978530;28;1459;-70
2022/09/17 00:12:25;;;;;;;;;;;;;;;;;;4970894;28;1297;-71
2022/09/17 00:14:51;;;;;;;;;;;;;;;;;;4971046;28;1106;-71
2022/09/17 00:17:17;;;;;;;;;;;;;;;;;;4952318;28;1392;-71
2022/09/17 00:19:44;;;;;;;;;;;;;;;;;;4962512;28;1154;-71
2022/09/17 00:22:10;;;;;;;;;;;;;;;;;;4953197;28;1334;-71
2022/09/17 00:24:36;;;;;;;;;;;;;;;;;;4971099;28;1068;-71
2022/09/17 00:27:03;;;;;;;;;;;;;;;;;;4970596;28;1983;-70
2022/09/17 00:29:30;;;;;;;;;;;;;;;;;;4975272;28;1590;-70
2022/09/17 00:31:56;;;;;;;;;;;;;;;;;;4972093;28;1417;-70
2022/09/17 00:34:22;;;;;;;;;;;;;;;;;;4970198;28;1155;-70
2022/09/17 00:36:48;;;;;;;;;;;;;;;;;;4953461;28;1540;-70
2022/09/17 00:39:15;;;;;;;;;;;;;;;;;;4961827;28;1408;-70
2022/09/17 00:41:41;;;;;;;;;;;;;;;;;;4970497;28;1472;-72
2022/09/17 00:44:26;;;;;;;;;;;;;;;;;;4970580;28;922;-71
2022/09/17 00:46:54;;;;;;;;;;;;;;;;;;4953319;28;1923;-69
2022/09/17 00:49:20;;;;;;;;;;;;;;;;;;4961618;28;1455;-70
2022/09/17 00:51:48;;;;;;;;;;;;;;;;;;4970180;28;1494;-72
2022/09/17 00:54:14;;;;;;;;;;;;;;;;;;4969889;28;1468;-71
2022/09/17 00:56:42;;;;;;;;;;;;;;;;;;4989836;28;1181;-70
2022/09/17 00:59:08;;;;;;;;;;;;;;;;;;4965206;28;1440;-70
2022/09/17 01:01:34;;;;;;;;;;;;;;;;;;4970402;28;1409;-70
2022/09/17 01:04:02;;;;;;;;;;;;;;;;;;4970427;28;1119;-73
2022/09/17 01:06:30;;;;;;;;;;;;;;;;;;4970517;28;1960;-70
2022/09/17 01:09:00;;;;;;;;;;;;;;;;;;4969144;28;1462;-70
2022/09/17 01:11:31;;;;;;;;;;;;;;;;;;4962934;28;1385;-70
2022/09/17 01:14:00;;;;;;;;;;;;;;;;;;4970354;28;850;-70
2022/09/17 01:16:29;;;;;;;;;;;;;;;;;;4970276;28;1111;-70
2022/09/17 01:18:58;;;;;;;;;;;;;;;;;;4961297;28;1578;-70
2022/09/17 01:21:30;;;;;;;;;;;;;;;;;;4959095;28;1484;-69
2022/09/17 01:24:15;;;;;;;;;;;;;;;;;;4970107;28;1131;-71
2022/09/17 01:26:48;;;;;;;;;;;;;;;;;;4970099;28;1919;-70
2022/09/17 01:29:16;;;;;;;;;;;;;;;;;;4959680;28;1452;-70
2022/09/17 01:31:44;;;;;;;;;;;;;;;;;;4969756;28;1494;-69
2022/09/17 01:34:13;;;;;;;;;;;;;;;;;;4966863;28;1388;-70
2022/09/17 01:36:43;;;;;;;;;;;;;;;;;;4964499;28;1131;-72
2022/09/17 01:39:11;;;;;;;;;;;;;;;;;;4969904;28;1060;-69
2022/09/17 01:41:39;;;;;;;;;;;;;;;;;;4969683;28;1334;-70
2022/09/17 01:44:06;;;;;;;;;;;;;;;;;;4960833;28;1404;-72
2022/09/17 01:46:33;;;;;;;;;;;;;;;;;;4952620;28;1981;-72
2022/09/17 01:49:01;;;;;;;;;;;;;;;;;;4969678;28;1521;-71
2022/09/17 01:51:28;;;;;;;;;;;;;;;;;;4952230;28;1443;-70
2022/09/17 01:53:56;;;;;;;;;;;;;;;;;;4960746;28;1470;-73
2022/09/17 01:56:23;;;;;;;;;;;;;;;;;;4969911;28;1123;-73
2022/09/17 01:58:51;;;;;;;;;;;;;;;;;;4961853;28;1432;-70
2022/09/17 02:01:18;;;;;;;;;;;;;;;;;;4968991;28;1410;-70
2022/09/17 02:03:45;;;;;;;;;;;;;;;;;;4962320;28;1555;-70
2022/09/17 02:06:14;;;;;;;;;;;;;;;;;;4968443;28;1206;-70
2022/09/17 02:08:41;;;;;;;;;;;;;;;;;;4969779;28;1979;-71
2022/09/17 02:11:08;;;;;;;;;;;;;;;;;;4968135;28;1306;-70
2022/09/17 02:13:35;;;;;;;;;;;;;;;;;;4963047;28;1425;-69
2022/09/17 02:16:02;;;;;;;;;;;;;;;;;;4967088;28;1186;-69
2022/09/17 02:18:29;;;;;;;;;;;;;;;;;;4969499;28;1143;-71
2022/09/17 02:20:57;;;;;;;;;;;;;;;;;;4968162;28;1459;-70
2022/09/17 02:23:25;;;;;;;;;;;;;;;;;;4961786;28;1168;-70
2022/09/17 02:25:52;;;;;;;;;;;;;;;;;;4969292;28;799;-69
2022/09/17 02:28:21;;;;;;;;;;;;;;;;;;4969508;28;1981;-70
2022/09/17 02:30:47;;;;;;;;;;;;;;;;;;4969130;28;1403;-72
2022/09/17 02:33:14;;;;;;;;;;;;;;;;;;4959021;28;1387;-71
2022/09/17 02:35:42;;;;;;;;;;;;;;;;;;4952016;28;1175;-69
2022/09/17 02:38:08;;;;;;;;;;;;;;;;;;4976162;28;1408;-70
2022/09/17 02:40:37;;;;;;;;;;;;;;;;;;4968098;28;1424;-70
2022/09/17 02:43:08;;;;;;;;;;;;;;;;;;4975749;28;1408;-69
2022/09/17 02:45:38;;;;;;;;;;;;;;;;;;4953150;28;1530;-72
2022/09/17 02:48:07;;;;;;;;;;;;;;;;;;4949971;29;1914;-70
2022/09/17 02:50:35;;;;;;;;;;;;;;;;;;4949884;29;1108;-71
2022/09/17 02:53:12;;;;;;;;;;;;;;;;;;4958041;28;1392;-70
2022/09/17 02:55:40;;;;;;;;;;;;;;;;;;4969077;28;1142;-70
2022/09/17 02:58:09;;;;;;;;;;;;;;;;;;4970741;28;1012;-71
2022/09/17 03:00:35;;;;;;;;;;;;;;;;;;4972640;28;1400;-68
2022/09/17 03:03:03;;;;;;;;;;;;;;;;;;4972088;28;1518;-70
2022/09/17 03:05:29;;;;;;;;;;;;;;;;;;4972448;28;1237;-69
2022/09/17 03:07:55;;;;;;;;;;;;;;;;;;4954776;28;1981;-70
2022/09/17 03:10:21;;;;;;;;;;;;;;;;;;4972385;28;815;-70
2022/09/17 03:12:49;;;;;;;;;;;;;;;;;;4964002;28;1479;-70
2022/09/17 03:15:15;;;;;;;;;;;;;;;;;;4971617;28;1214;-70
2022/09/17 03:17:42;;;;;;;;;;;;;;;;;;4972277;28;1000;-70
2022/09/17 03:20:08;;;;;;;;;;;;;;;;;;4963043;28;1463;-70
2022/09/17 03:22:34;;;;;;;;;;;;;;;;;;4971487;28;1393;-68
2022/09/17 03:25:00;;;;;;;;;;;;;;;;;;4972123;28;890;-70
2022/09/17 03:27:27;;;;;;;;;;;;;;;;;;4970783;28;1910;-70
2022/09/17 03:29:54;;;;;;;;;;;;;;;;;;4946839;28;1148;-69
2022/09/17 03:32:21;;;;;;;;;;;;;;;;;;4952413;28;1391;-69
2022/09/17 03:37:27;;;;;;;;;;;;;;;;;;4952839;28;1456;-69
2022/09/17 03:39:54;;;;;;;;;;;;;;;;;;4971863;28;1388;-70
2022/09/17 03:42:20;;;;;;;;;;;;;;;;;;4952080;28;1377;-70
2022/09/17 03:44:46;;;;;;;;;;;;;;;;;;4952632;29;1021;-69
2022/09/17 03:47:15;;;;;;;;;;;;;;;;;;4953402;28;1949;-69
2022/09/17 03:49:41;;;;;;;;;;;;;;;;;;4963732;28;1151;-70
2022/09/17 03:52:08;;;;;;;;;;;;;;;;;;4975305;28;1402;-70
2022/09/17 03:54:34;;;;;;;;;;;;;;;;;;4971707;28;1142;-69
2022/09/17 03:57:00;;;;;;;;;;;;;;;;;;4953698;28;1455;-68
2022/09/17 03:59:28;;;;;;;;;;;;;;;;;;4963167;28;1531;-70
2022/09/17 04:01:54;;;;;;;;;;;;;;;;;;4971250;28;1380;-69
2022/09/17 04:04:22;;;;;;;;;;;;;;;;;;4971309;28;1143;-70
2022/09/17 04:06:48;;;;;;;;;;;;;;;;;;4971680;28;1067;-70
2022/09/17 04:09:14;;;;;;;;;;;;;;;;;;4961377;28;1910;-70
2022/09/17 04:11:40;;;;;;;;;;;;;;;;;;4970924;28;1476;-69
2022/09/17 04:14:06;;;;;;;;;;;;;;;;;;4971380;28;1080;-69
2022/09/17 04:16:33;;;;;;;;;;;;;;;;;;4970000;28;1182;-70
2022/09/17 04:18:59;;;;;;;;;;;;;;;;;;4976220;28;1372;-69
2022/09/17 04:21:26;;;;;;;;;;;;;;;;;;4970910;28;1346;-69
2022/09/17 04:23:52;;;;;;;;;;;;;;;;;;4970910;28;1087;-69
2022/09/17 04:26:18;;;;;;;;;;;;;;;;;;4971402;28;807;-71
2022/09/17 04:28:45;;;;;;;;;;;;;;;;;;4963477;28;1978;-69
2022/09/17 04:31:11;;;;;;;;;;;;;;;;;;4969541;28;1389;-69
2022/09/17 04:33:37;;;;;;;;;;;;;;;;;;4965347;28;1649;-70
2022/09/17 04:36:03;;;;;;;;;;;;;;;;;;4985709;28;1446;-69
2022/09/17 04:38:32;;;;;;;;;;;;;;;;;;4976682;28;1383;-70
2022/09/17 04:40:58;;;;;;;;;;;;;;;;;;4965457;28;1414;-69
2022/09/17 04:43:24;;;;;;;;;;;;;;;;;;4967384;28;1412;-70
2022/09/17 04:45:51;;;;;;;;;;;;;;;;;;4960374;28;1630;-70
2022/09/17 04:48:17;;;;;;;;;;;;;;;;;;4990875;28;1915;-70
2022/09/17 04:50:43;;;;;;;;;;;;;;;;;;4960650;28;1416;-71
2022/09/17 04:53:09;;;;;;;;;;;;;;;;;;4968191;28;1147;-70
2022/09/17 04:55:37;;;;;;;;;;;;;;;;;;4967343;28;1401;-71
2022/09/17 04:58:03;;;;;;;;;;;;;;;;;;4967128;28;1531;-70
2022/09/17 05:00:29;;;;;;;;;;;;;;;;;;4968814;28;1340;-69
2022/09/17 05:02:55;;;;;;;;;;;;;;;;;;4973277;28;1499;-69
2022/09/17 05:05:22;;;;;;;;;;;;;;;;;;4969135;28;1420;-71
2022/09/17 05:07:48;;;;;;;;;;;;;;;;;;4962552;28;1915;-70
2022/09/17 05:10:15;;;;;;;;;;;;;;;;;;4960327;28;1432;-71
2022/09/17 05:12:46;;;;;;;;;;;;;;;;;;4972500;28;1447;-72
2022/09/17 05:15:13;;;;;;;;;;;;;;;;;;4977132;28;1520;-71
2022/09/17 05:17:39;;;;;;;;;;;;;;;;;;4952907;28;1282;-71
2022/09/17 05:20:05;;;;;;;;;;;;;;;;;;4969874;28;973;-71
2022/09/17 05:22:31;;;;;;;;;;;;;;;;;;4961185;28;1507;-70
2022/09/17 05:24:58;;;;;;;;;;;;;;;;;;4966999;28;1404;-69
2022/09/17 05:27:24;;;;;;;;;;;;;;;;;;4972769;28;1721;-70
2022/09/17 05:29:51;;;;;;;;;;;;;;;;;;4969171;28;2028;-70
2022/09/17 05:32:17;;;;;;;;;;;;;;;;;;4952382;28;1373;-70
2022/09/17 05:34:43;;;;;;;;;;;;;;;;;;4969862;28;1271;-70
2022/09/17 05:37:10;;;;;;;;;;;;;;;;;;4969898;28;795;-70
2022/09/17 05:39:36;;;;;;;;;;;;;;;;;;4970006;28;783;-70
2022/09/17 05:42:02;;;;;;;;;;;;;;;;;;4969599;28;1338;-70
2022/09/17 05:44:28;;;;;;;;;;;;;;;;;;4952643;28;1136;-70
2022/09/17 05:46:56;;;;;;;;;;;;;;;;;;4969881;28;703;-68
2022/09/17 05:49:22;;;;;;;;;;;;;;;;;;4952881;28;1930;-71
2022/09/17 05:51:49;;;;;;;;;;;;;;;;;;4970116;28;1309;-69
2022/09/17 05:54:15;;;;;;;;;;;;;;;;;;4969955;28;1056;-71
2022/09/17 05:56:41;;;;;;;;;;;;;;;;;;4969748;28;1135;-70
2022/09/17 05:59:08;;;;;;;;;;;;;;;;;;4969832;28;1127;-71
2022/09/17 06:01:34;;;;;;;;;;;;;;;;;;4968226;28;1306;-69
2022/09/17 06:04:02;;;;;;;;;;;;;;;;;;4952470;28;1120;-70
2022/09/17 06:06:29;;;;;;;;;;;;;;;;;;4952351;28;1128;-71
2022/09/17 06:08:55;;;;;;;;;;;;;;;;;;4969440;28;1977;-71
2022/09/17 06:11:22;;;;;;;;;;;;;;;;;;4969217;28;1331;-71
2022/09/17 06:13:51;;;;;;;;;;;;;;;;;;4969737;28;1526;-71
2022/09/17 06:16:18;;;;;;;;;;;;;;;;;;4969270;28;1116;-69
2022/09/17 06:18:44;;;;;;;;;;;;;;;;;;4952329;28;1140;-70
2022/09/17 06:21:11;;;;;;;;;;;;;;;;;;4968987;28;1265;-71
2022/09/17 06:23:37;;;;;;;;;;;;;;;;;;4969262;28;1072;-71
2022/09/17 06:26:04;;;;;;;;;;;;;;;;;;4952186;28;1219;-70
2022/09/17 06:28:30;;;;;;;;;;;;;;;;;;4969218;28;1969;-70
2022/09/17 06:30:59;;;;;;;;;;;;;;;;;;4969153;28;1375;-70
2022/09/17 06:33:25;;;;;;;;;;;;;;;;;;4971142;28;1051;-71
2022/09/17 06:35:55;;;;;;;;;;;;;;;;;;4947767;28;1472;-71
2022/09/17 06:38:23;;;;;;;;;;;;;;;;;;5005720;28;1445;-70
2022/09/17 06:40:50;;;;;;;;;;;;;;;;;;4992091;28;1551;-70
2022/09/17 06:43:16;;;;;;;;;;;;;;;;;;4981076;28;1343;-70
2022/09/17 06:45:42;;;;;;;;;;;;;;;;;;4973582;28;1327;-70
2022/09/17 06:48:08;;;;;;;;;;;;;;;;;;4972336;28;1943;-71
2022/09/17 06:50:35;;;;;;;;;;;;;;;;;;4972497;28;1000;-70
2022/09/17 06:53:01;;;;;;;;;;;;;;;;;;4954605;28;1170;-70
2022/09/17 06:55:28;;;;;;;;;;;;;;;;;;4971461;28;1372;-70
2022/09/17 06:57:58;;;;;;;;;;;;;;;;;;4974866;28;1407;-71
2022/09/17 07:00:24;;;;;;;;;;;;;;;;;;4974254;28;1510;-68
2022/09/17 07:02:57;;;;;;;;;;;;;;;;;;4961140;28;1443;-71
2022/09/17 07:05:23;;;;;;;;;;;;;;;;;;4991665;28;850;-71
2022/09/17 07:07:49;;;;;;;;;;;;;;;;;;4988212;28;1111;-70
2022/09/17 07:10:16;;;;;;;;;;;;;;;;;;4972177;28;1922;-70
2022/09/17 07:12:44;;;;;;;;;;;;;;;;;;4971797;28;1484;-70
2022/09/17 07:15:10;;;;;;;;;;;;;;;;;;4970436;28;1182;-70
2022/09/17 07:17:38;;;;;;;;;;;;;;;;;;4970668;28;1132;-71
2022/09/17 07:20:04;;;;;;;;;;;;;;;;;;4971745;28;756;-70
2022/09/17 07:22:30;;;;;;;;;;;;;;;;;;4971260;28;1381;-70
2022/09/17 07:24:57;;;;;;;;;;;;;;;;;;4971483;28;1092;-70
2022/09/17 07:27:23;;;;;;;;;;;;;;;;;;4971996;28;1072;-71
2022/09/17 07:29:50;;;;;;;;;;;;;;;;;;4971756;28;1918;-71
2022/09/17 07:32:16;;;;;;;;;;;;;;;;;;4971311;28;1391;-70
2022/09/17 07:34:43;;;;;;;;;;;;;;;;;;4970275;28;1237;-71
2022/09/17 07:37:09;;;;;;;;;;;;;;;;;;4971617;28;878;-69
2022/09/17 07:39:35;;;;;;;;;;;;;;;;;;4971606;28;1076;-70
2022/09/17 07:42:03;;;;;;;;;;;;;;;;;;4969947;28;1372;-71
2022/09/17 07:44:29;;;;;;;;;;;;;;;;;;4971364;28;1088;-70
2022/09/17 07:46:56;;;;;;;;;;;;;;;;;;4969776;28;1294;-71
2022/09/17 07:49:23;;;;;;;;;;;;;;;;;;4971690;28;1918;-71
2022/09/17 07:51:49;;;;;;;;;;;;;;;;;;4971498;28;1384;-72
2022/09/17 07:54:15;;;;;;;;;;;;;;;;;;4971634;28;1143;-71
2022/09/17 07:56:41;;;;;;;;;;;;;;;;;;4971427;28;875;-71
2022/09/17 07:59:08;;;;;;;;;;;;;;;;;;4971174;28;1061;-71
2022/09/17 08:01:35;;;;;;;;;;;;;;;;;;4969746;28;1332;-70
2022/09/17 08:04:03;;;;;;;;;;;;;;;;;;4970883;28;746;-70
2022/09/17 08:06:29;;;;;;;;;;;;;;;;;;4970908;28;1072;-71
2022/09/17 08:08:55;;;;;;;;;;;;;;;;;;4971188;28;1923;-71
2022/09/17 08:11:22;;;;;;;;;;;;;;;;;;4969529;28;1510;-70
2022/09/17 08:13:48;;;;;;;;;;;;;;;;;;4971011;28;1084;-69
2022/09/17 08:16:15;;;;;;;;;;;;;;;;;;4970945;28;992;-71
2022/09/17 08:18:41;;;;;;;;;;;;;;;;;;4971008;28;1049;-70
2022/09/17 08:21:10;;;;;;;;;;;;;;;;;;4970792;28;1371;-71
2022/09/17 08:23:37;;;;;;;;;;;;;;;;;;4970661;28;1012;-71
2022/09/17 08:26:04;;;;;;;;;;;;;;;;;;4971077;28;969;-70
2022/09/17 08:28:31;;;;;;;;;;;;;;;;;;4969735;28;1918;-70
2022/09/17 08:30:59;;;;;;;;;;;;;;;;;;4971396;28;1319;-71
2022/09/17 08:33:26;;;;;;;;;;;;;;;;;;4971096;28;957;-71
2022/09/17 08:35:53;;;;;;;;;;;;;;;;;;4969518;28;1239;-69
2022/09/17 08:38:20;;;;;;;;;;;;;;;;;;4970879;28;957;-69
2022/09/17 08:40:51;;;;;;;;;;;;;;;;;;4969184;28;1314;-70
2022/09/17 08:43:17;;;;;;;;;;;;;;;;;;4986733;28;1495;-70
2022/09/17 08:45:43;;;;;;;;;;;;;;;;;;4990266;28;1127;-70
2022/09/17 08:48:10;;;;;;;;;;;;;;;;;;4989914;28;933;-70
2022/09/17 08:50:38;;;;;;;;;;;;;;;;;;4989965;28;1910;-70
2022/09/17 08:53:10;;;;;;;;;;;;;;;;;;4988369;28;1244;-71
2022/09/17 08:55:40;;;;;;;;;;;;;;;;;;4989391;28;1076;-70
2022/09/17 08:58:27;;;;;;;;;;;;;;;;;;4989938;28;1104;-70
2022/09/17 09:00:54;;;;;;;;;;;;;;;;;;4991107;28;1363;-69
2022/09/17 09:03:24;;;;;;;;;;;;;;;;;;4989663;28;1020;-70
2022/09/17 09:05:51;;;;;;;;;;;;;;;;;;4989634;28;1067;-70
2022/09/17 09:08:20;;;;;;;;;;;;;;;;;;4989871;28;863;-70
2022/09/17 09:10:49;;;;;;;;;;;;;;;;;;4989471;28;1976;-69
2022/09/17 09:13:16;;;;;;;;;;;;;;;;;;4989401;28;1072;-70
2022/09/17 09:15:43;;;;;;;;;;;;;;;;;;4989686;28;826;-70
2022/09/17 09:18:13;;;;;;;;;;;;;;;;;;4989400;28;870;-70
2022/09/17 09:20:40;;;;;;;;;;;;;;;;;;4989647;28;1328;-68
2022/09/17 09:23:07;;;;;;;;;;;;;;;;;;4989162;28;1111;-70
2022/09/17 09:25:35;;;;;;;;;;;;;;;;;;4989448;28;1068;-70
2022/09/17 09:28:05;;;;;;;;;;;;;;;;;;4989301;28;838;-71
2022/09/17 09:30:35;;;;;;;;;;;;;;;;;;4989432;28;1918;-71
2022/09/17 09:33:03;;;;;;;;;;;;;;;;;;4989103;28;1437;-70
2022/09/17 09:35:29;;;;;;;;;;;;;;;;;;4989508;28;858;-71
2022/09/17 09:40:36;;;;;;;;;;;;;;;;;;4947763;28;1496;-74
2022/09/17 09:43:09;;;;;;;;;;;;;;;;;;4949633;29;1131;-74
2022/09/17 09:45:38;;;;;;;;;;;;;;;;;;4933273;29;1380;-74
2022/09/17 09:48:05;;;;;;;;;;;;;;;;;;4933041;29;1339;-73
2022/09/17 09:50:34;;;;;;;;;;;;;;;;;;4933815;29;1918;-74
2022/09/17 09:53:03;;;;;;;;;;;;;;;;;;4933937;29;1108;-74
2022/09/17 09:55:33;;;;;;;;;;;;;;;;;;4950964;29;1064;-74
2022/09/17 09:58:03;;;;;;;;;;;;;;;;;;4950566;29;1310;-73
2022/09/17 10:00:31;;;;;;;;;;;;;;;;;;4950179;29;1076;-74
2022/09/17 10:02:59;;;;;;;;;;;;;;;;;;4949893;29;1030;-74
2022/09/17 10:05:25;;;;;;;;;;;;;;;;;;4950071;29;790;-73
2022/09/17 10:07:51;;;;;;;;;;;;;;;;;;4951729;28;1060;-74
2022/09/17 10:10:18;;;;;;;;;;;;;;;;;;4953481;29;1914;-75
2022/09/17 10:12:44;;;;;;;;;;;;;;;;;;4953370;28;1098;-74
2022/09/17 10:15:23;;;;;;;;;;;;;;;;;;4953646;29;1134;-74
2022/09/17 10:17:51;;;;;;;;;;;;;;;;;;4954257;29;1075;-74
2022/09/17 10:20:17;;;;;;;;;;;;;;;;;;4953575;28;1379;-74
2022/09/17 10:22:44;;;;;;;;;;;;;;;;;;4935708;29;1112;-74
2022/09/17 10:25:34;;;;;;;;;;;;;;;;;;4936034;29;1097;-74
2022/09/17 10:28:01;;;;;;;;;;;;;;;;;;4963013;28;1372;-73
2022/09/17 10:30:27;;;;;;;;;;;;;;;;;;4952971;29;1978;-74
2022/09/17 10:33:17;;;;;;;;;;;;;;;;;;4953353;29;890;-75
2022/09/17 10:35:47;;;;;;;;;;;;;;;;;;4933904;29;1635;-75
2022/09/17 10:38:26;;;;;;;;;;;;;;;;;;4934242;29;1319;-75
2022/09/17 10:40:52;;;;;;;;;;;;;;;;;;4934191;29;1076;-75
2022/09/17 10:43:21;;;;;;;;;;;;;;;;;;4933607;29;1084;-76
2022/09/17 10:45:55;;;;;;;;;;;;;;;;;;4917305;29;918;-75
2022/09/17 10:48:22;;;;;;;;;;;;;;;;;;4933980;29;1365;-75
2022/09/17 10:50:49;;;;;;;;;;;;;;;;;;4932858;29;1918;-74
2022/09/17 10:53:15;;;;;;;;;;;;;;;;;;4940174;29;1432;-76
2022/09/17 10:55:42;;;;;;;;;;;;;;;;;;4936397;29;1269;-75
2022/09/17 10:58:11;;;;;;;;;;;;;;;;;;4953558;29;1372;-75
2022/09/17 11:00:39;;;;;;;;;;;;;;;;;;4938727;29;1404;-76
2022/09/17 11:03:25;;;;;;;;;;;;;;;;;;4933927;29;1013;-76
2022/09/17 11:05:56;;;;;;;;;;;;;;;;;;4940451;29;1513;-75
2022/09/17 11:08:23;;;;;;;;;;;;;;;;;;4937830;29;1326;-75
2022/09/17 11:10:51;;;;;;;;;;;;;;;;;;4935886;29;1919;-74
2022/09/17 11:13:19;;;;;;;;;;;;;;;;;;4948668;29;1485;-76
2022/09/17 11:15:49;;;;;;;;;;;;;;;;;;4941578;29;1423;-75
2022/09/17 11:18:19;;;;;;;;;;;;;;;;;;4944082;28;1337;-76
2022/09/17 11:20:51;;;;;;;;;;;;;;;;;;4952798;29;929;-75
2022/09/17 11:23:23;;;;;;;;;;;;;;;;;;4935277;29;1219;-75
2022/09/17 11:25:50;;;;;;;;;;;;;;;;;;4946100;28;1437;-76
2022/09/17 11:28:20;;;;;;;;;;;;;;;;;;4940611;29;1503;-75
2022/09/17 11:30:49;;;;;;;;;;;;;;;;;;4941295;28;1910;-75
2022/09/17 11:33:28;;;;;;;;;;;;;;;;;;4951798;29;1195;-76
2022/09/17 11:35:59;;;;;;;;;;;;;;;;;;4952623;29;914;-76
2022/09/17 11:38:26;;;;;;;;;;;;;;;;;;4948097;29;1493;-76
2022/09/17 11:40:53;;;;;;;;;;;;;;;;;;4941185;29;1235;-76
2022/09/17 11:43:21;;;;;;;;;;;;;;;;;;4934685;28;1207;-76
2022/09/17 11:45:50;;;;;;;;;;;;;;;;;;4952739;28;910;-75
2022/09/17 11:48:17;;;;;;;;;;;;;;;;;;4949303;29;1431;-75
2022/09/17 11:50:44;;;;;;;;;;;;;;;;;;4940934;29;1989;-76
2022/09/17 11:53:14;;;;;;;;;;;;;;;;;;4950682;29;1195;-75
2022/09/17 11:55:42;;;;;;;;;;;;;;;;;;4942767;29;1583;-76
2022/09/17 11:58:10;;;;;;;;;;;;;;;;;;4925198;29;1497;-75
2022/09/17 12:00:37;;;;;;;;;;;;;;;;;;4923595;28;1410;-75
2022/09/17 12:03:05;;;;;;;;;;;;;;;;;;4948903;29;1152;-75
2022/09/17 12:05:33;;;;;;;;;;;;;;;;;;4951897;29;837;-76
2022/09/17 12:08:00;;;;;;;;;;;;;;;;;;4944937;29;1485;-75
2022/09/17 12:10:32;;;;;;;;;;;;;;;;;;4938080;29;1919;-76
2022/09/17 12:12:59;;;;;;;;;;;;;;;;;;4948486;29;1321;-74
2022/09/17 12:15:26;;;;;;;;;;;;;;;;;;4943457;29;1504;-76
2022/09/17 12:17:54;;;;;;;;;;;;;;;;;;4943433;29;1190;-76
2022/09/17 12:20:22;;;;;;;;;;;;;;;;;;4939060;29;1468;-76
2022/09/17 12:22:48;;;;;;;;;;;;;;;;;;4945166;28;1167;-76
2022/09/17 12:25:15;;;;;;;;;;;;;;;;;;4944205;29;1458;-75
2022/09/17 12:27:43;;;;;;;;;;;;;;;;;;4939734;29;1159;-76
2022/09/17 12:30:10;;;;;;;;;;;;;;;;;;4936909;28;1922;-76
2022/09/17 12:32:49;;;;;;;;;;;;;;;;;;4943767;28;1159;-76
2022/09/17 12:35:18;;;;;;;;;;;;;;;;;;4934860;29;1459;-76
2022/09/17 12:37:46;;;;;;;;;;;;;;;;;;4940880;29;1568;-76
2022/09/17 12:40:15;;;;;;;;;;;;;;;;;;4936685;29;1421;-75
2022/09/17 12:42:55;;;;;;;;;;;;;;;;;;4940074;29;1457;-75
2022/09/17 12:45:25;;;;;;;;;;;;;;;;;;4933916;28;1124;-74
2022/09/17 12:48:21;;;;;;;;;;;;;;;;;;4951829;28;921;-75
2022/09/17 12:50:50;;;;;;;;;;;;;;;;;;4990374;28;1915;-74
2022/09/17 12:53:20;;;;;;;;;;;;;;;;;;4959884;28;1406;-75
2022/09/17 12:55:49;;;;;;;;;;;;;;;;;;4934236;29;963;-76
2022/09/17 12:58:34;;;;;;;;;;;;;;;;;;4934073;29;1454;-76
2022/09/17 13:01:02;;;;;;;;;;;;;;;;;;4951133;28;1406;-75
2022/09/17 13:03:29;;;;;;;;;;;;;;;;;;4950698;29;1052;-75
2022/09/17 13:06:02;;;;;;;;;;;;;;;;;;4951353;29;1076;-75
2022/09/17 13:08:47;;;;;;;;;;;;;;;;;;4951084;29;1304;-75
2022/09/17 13:11:37;;;;;;;;;;;;;;;;;;4951103;29;1915;-75
2022/09/17 13:14:04;;;;;;;;;;;;;;;;;;4970544;28;1243;-76
2022/09/17 13:16:33;;;;;;;;;;;;;;;;;;4951131;29;977;-76
2022/09/17 13:19:00;;;;;;;;;;;;;;;;;;4951056;29;1386;-76
2022/09/17 13:21:30;;;;;;;;;;;;;;;;;;4950365;29;957;-75
2022/09/17 13:23:56;;;;;;;;;;;;;;;;;;4933871;29;1270;-77
2022/09/17 13:26:33;;;;;;;;;;;;;;;;;;4945636;29;1493;-77
2022/09/17 13:28:59;;;;;;;;;;;;;;;;;;4933186;29;1463;-76
2022/09/17 13:31:43;;;;;;;;;;;;;;;;;;4936868;29;1983;-76
2022/09/17 13:34:24;;;;;;;;;;;;;;;;;;4949094;29;1409;-76
2022/09/17 13:36:52;;;;;;;;;;;;;;;;;;4923316;28;1409;-77
2022/09/17 13:39:35;;;;;;;;;;;;;;;;;;4931385;29;1476;-77
2022/09/17 13:42:03;;;;;;;;;;;;;;;;;;4930960;29;1116;-76
2022/09/17 13:44:29;;;;;;;;;;;;;;;;;;4913657;28;1678;-75
2022/09/17 13:46:56;;;;;;;;;;;;;;;;;;4931141;29;1114;-77
2022/09/17 13:49:22;;;;;;;;;;;;;;;;;;4931272;28;1552;-77
2022/09/17 13:51:49;;;;;;;;;;;;;;;;;;4931102;29;1911;-76
2022/09/17 13:54:17;;;;;;;;;;;;;;;;;;4931616;29;1017;-76
2022/09/17 13:56:45;;;;;;;;;;;;;;;;;;4931578;29;922;-77
2022/09/17 13:59:12;;;;;;;;;;;;;;;;;;4931758;29;1291;-77
2022/09/17 14:01:57;;;;;;;;;;;;;;;;;;4931463;29;1072;-77
2022/09/17 14:04:33;;;;;;;;;;;;;;;;;;4931654;29;855;-78
2022/09/17 14:07:00;;;;;;;;;;;;;;;;;;4931523;29;1064;-77
2022/09/17 14:09:35;;;;;;;;;;;;;;;;;;4930992;29;1343;-76
2022/09/17 14:12:01;;;;;;;;;;;;;;;;;;4930663;29;1918;-76
2022/09/17 14:14:39;;;;;;;;;;;;;;;;;;4929898;28;1376;-78
2022/09/17 14:17:07;;;;;;;;;;;;;;;;;;4931094;29;1076;-77
2022/09/17 14:19:35;;;;;;;;;;;;;;;;;;4927983;29;1440;-77
2022/09/17 14:22:02;;;;;;;;;;;;;;;;;;4930753;29;966;-78
2022/09/17 14:24:37;;;;;;;;;;;;;;;;;;4930509;28;1429;-78
2022/09/17 14:27:06;;;;;;;;;;;;;;;;;;4929167;29;1465;-77
2022/09/17 14:29:42;;;;;;;;;;;;;;;;;;4928372;28;1303;-77
2022/09/17 14:32:10;;;;;;;;;;;;;;;;;;4928663;29;1970;-77
2022/09/17 14:34:37;;;;;;;;;;;;;;;;;;4919618;29;1571;-77
2022/09/17 14:37:03;;;;;;;;;;;;;;;;;;4932059;29;1295;-76
2022/09/17 14:39:29;;;;;;;;;;;;;;;;;;4893709;29;1427;-76
2022/09/17 14:41:57;;;;;;;;;;;;;;;;;;4894805;28;1105;-77
2022/09/17 14:44:24;;;;;;;;;;;;;;;;;;4911762;29;1072;-77
2022/09/17 14:46:52;;;;;;;;;;;;;;;;;;4916579;29;1419;-76
2022/09/17 14:49:19;;;;;;;;;;;;;;;;;;4907562;28;1593;-77
2022/09/17 14:51:45;;;;;;;;;;;;;;;;;;4935330;28;1915;-76
2022/09/17 14:54:22;;;;;;;;;;;;;;;;;;4938934;29;1415;-76
2022/09/17 14:56:52;;;;;;;;;;;;;;;;;;4935976;28;1482;-76
2022/09/17 14:59:25;;;;;;;;;;;;;;;;;;4933871;29;1322;-76
2022/09/17 15:01:51;;;;;;;;;;;;;;;;;;4933801;29;815;-76
2022/09/17 15:04:20;;;;;;;;;;;;;;;;;;4933924;29;1068;-76
2022/09/17 15:06:46;;;;;;;;;;;;;;;;;;4934047;29;1006;-77
2022/09/17 15:09:14;;;;;;;;;;;;;;;;;;4933648;29;1330;-76
2022/09/17 15:11:41;;;;;;;;;;;;;;;;;;4932221;29;1907;-77
2022/09/17 15:14:08;;;;;;;;;;;;;;;;;;4914520;28;985;-76
2022/09/17 15:16:36;;;;;;;;;;;;;;;;;;4931188;29;1092;-77
2022/09/17 15:19:03;;;;;;;;;;;;;;;;;;4931197;29;1309;-75
2022/09/17 15:21:29;;;;;;;;;;;;;;;;;;4930399;29;596;-75
2022/09/17 15:23:56;;;;;;;;;;;;;;;;;;4932794;29;943;-77
2022/09/17 15:26:24;;;;;;;;;;;;;;;;;;4933274;29;1001;-76
2022/09/17 15:28:50;;;;;;;;;;;;;;;;;;4933041;29;1352;-75
2022/09/17 15:31:17;;;;;;;;;;;;;;;;;;4933517;29;1915;-75
2022/09/17 15:33:45;;;;;;;;;;;;;;;;;;4933574;29;1127;-75
2022/09/17 15:36:15;;;;;;;;;;;;;;;;;;4920501;29;1565;-76
2022/09/17 15:38:43;;;;;;;;;;;;;;;;;;4930433;29;1425;-76
2022/09/17 15:41:18;;;;;;;;;;;;;;;;;;4959300;22;3750;-72
2022/09/17 15:43:44;;;;;;;;;;;;;;;;;;4982941;28;1133;-72
2022/09/17 15:46:21;;;;;;;;;;;;;;;;;;4969470;28;1268;-74
2022/09/17 15:48:49;;;;;;;;;;;;;;;;;;4958328;28;1383;-74
2022/09/17 15:51:22;;;;;;;;;;;;;;;;;;4947785;28;1923;-71
2022/09/17 15:53:50;;;;;;;;;;;;;;;;;;4945397;28;1586;-70
2022/09/17 15:56:17;;;;;;;;;;;;;;;;;;4935030;28;1386;-70
2022/09/17 15:58:51;;;;;;;;;;;;;;;;;;4951743;28;1228;-72
2022/09/17 16:01:38;;;;;;;;;;;;;;;;;;4950839;28;1536;-71
2022/09/17 16:04:16;;;;;;;;;;;;;;;;;;4955211;28;1716;-72
2022/09/17 16:06:47;;;;;;;;;;;;;;;;;;4968519;28;1485;-72
2022/09/17 16:09:31;;;;;;;;;;;;;;;;;;4948884;28;1103;-71
2022/09/17 16:11:58;;;;;;;;;;;;;;;;;;4925647;29;1915;-73
2022/09/17 16:14:24;;;;;;;;;;;;;;;;;;4933795;28;1447;-74
2022/09/17 16:16:51;;;;;;;;;;;;;;;;;;4948783;28;1114;-73
2022/09/17 16:19:18;;;;;;;;;;;;;;;;;;4948215;28;1103;-72
2022/09/17 16:21:44;;;;;;;;;;;;;;;;;;4947936;28;1490;-73
2022/09/17 16:24:10;;;;;;;;;;;;;;;;;;4949620;28;1118;-73
2022/09/17 16:26:37;;;;;;;;;;;;;;;;;;4949545;28;949;-72
2022/09/17 16:29:04;;;;;;;;;;;;;;;;;;4949989;28;1237;-72
2022/09/17 16:31:30;;;;;;;;;;;;;;;;;;4946157;28;1988;-71
2022/09/17 16:33:57;;;;;;;;;;;;;;;;;;4949759;28;1166;-72
2022/09/17 16:36:26;;;;;;;;;;;;;;;;;;4944292;28;1468;-72
2022/09/17 16:38:52;;;;;;;;;;;;;;;;;;4945433;28;1242;-72
2022/09/17 16:41:18;;;;;;;;;;;;;;;;;;4948887;28;1418;-72
2022/09/17 16:43:44;;;;;;;;;;;;;;;;;;4949734;28;853;-72
2022/09/17 16:46:10;;;;;;;;;;;;;;;;;;4944838;28;1474;-72
2022/09/17 16:48:37;;;;;;;;;;;;;;;;;;4937535;29;1379;-70
2022/09/17 16:51:06;;;;;;;;;;;;;;;;;;4945806;28;1455;-73
2022/09/17 16:53:34;;;;;;;;;;;;;;;;;;4948815;28;1968;-73
2022/09/17 16:56:00;;;;;;;;;;;;;;;;;;4948369;28;1080;-73
2022/09/17 16:58:26;;;;;;;;;;;;;;;;;;4949129;28;1371;-73
2022/09/17 17:00:52;;;;;;;;;;;;;;;;;;4948979;28;1478;-72
2022/09/17 17:03:18;;;;;;;;;;;;;;;;;;4939997;29;1439;-71
2022/09/17 17:05:45;;;;;;;;;;;;;;;;;;4947841;28;1134;-72
2022/09/17 17:08:13;;;;;;;;;;;;;;;;;;4947862;28;1529;-72
2022/09/17 17:10:40;;;;;;;;;;;;;;;;;;4944948;29;1531;-73
2022/09/17 17:13:07;;;;;;;;;;;;;;;;;;4938692;28;1923;-72
2022/09/17 17:15:33;;;;;;;;;;;;;;;;;;4941036;28;1411;-73
2022/09/17 17:17:59;;;;;;;;;;;;;;;;;;4945785;29;1095;-72